< < Back
Terminal Aerodrome Forecast


Current Version              Previous Versions:   1  2  3  4  5  6  7  8  9  

Terminal Aerodrome Forecast

523
FTUS44 KBMX 021317 AAA
TAFANB
TAF AMD
KANB 021317Z 0213/0312 00000KT P6SM SCT060 BKN250
     FM021500 VRB03KT P6SM BKN050 BKN250=

Latest METAR

710
SAUS70 KWBC 031100 RRC
MTRANB
METAR KANB 031053Z AUTO 19004KT 6SM BR FEW110 23/21 A3002 RMK AO2 SLP155
T02280211


USA.gov is the U.S. government's official web portal to all federal, state and local government web resources and services.